sensor_id;sensor_type;location;lat;lon;timestamp;P1;durP1;ratioP1;P2;durP2;ratioP2
51560;SDS011;37654;51.262;17.058;2024-01-07T00:00:19;18.67;;;8.85;;
51560;SDS011;37654;51.262;17.058;2024-01-07T00:02:45;23.33;;;10.13;;
51560;SDS011;37654;51.262;17.058;2024-01-07T00:05:11;17.65;;;9.27;;
51560;SDS011;37654;51.262;17.058;2024-01-07T00:07:40;18.38;;;8.13;;
51560;SDS011;37654;51.262;17.058;2024-01-07T00:10:05;17.83;;;7.95;;
51560;SDS011;37654;51.262;17.058;2024-01-07T00:12:33;18.25;;;8.60;;
51560;SDS011;37654;51.262;17.058;2024-01-07T00:14:59;21.83;;;10.13;;
51560;SDS011;37654;51.262;17.058;2024-01-07T00:17:28;15.60;;;8.02;;
51560;SDS011;37654;51.262;17.058;2024-01-07T00:19:56;16.50;;;8.43;;
51560;SDS011;37654;51.262;17.058;2024-01-07T00:22:21;19.83;;;8.77;;
51560;SDS011;37654;51.262;17.058;2024-01-07T00:24:46;19.42;;;8.63;;
51560;SDS011;37654;51.262;17.058;2024-01-07T00:27:18;17.13;;;8.77;;
51560;SDS011;37654;51.262;17.058;2024-01-07T00:29:43;18.65;;;8.27;;
51560;SDS011;37654;51.262;17.058;2024-01-07T00:32:09;16.90;;;8.60;;
51560;SDS011;37654;51.262;17.058;2024-01-07T00:34:35;18.02;;;8.18;;
51560;SDS011;37654;51.262;17.058;2024-01-07T00:37:00;15.90;;;8.02;;
51560;SDS011;37654;51.262;17.058;2024-01-07T00:39:31;20.20;;;8.93;;
51560;SDS011;37654;51.262;17.058;2024-01-07T00:41:56;18.98;;;8.77;;
51560;SDS011;37654;51.262;17.058;2024-01-07T00:44:21;17.67;;;8.13;;
51560;SDS011;37654;51.262;17.058;2024-01-07T00:46:47;16.40;;;7.57;;
51560;SDS011;37654;51.262;17.058;2024-01-07T00:49:16;17.35;;;7.70;;
51560;SDS011;37654;51.262;17.058;2024-01-07T00:51:45;17.48;;;7.97;;
51560;SDS011;37654;51.262;17.058;2024-01-07T00:54:10;17.73;;;8.40;;
51560;SDS011;37654;51.262;17.058;2024-01-07T00:56:35;16.10;;;8.60;;
51560;SDS011;37654;51.262;17.058;2024-01-07T00:59:01;17.52;;;8.30;;
51560;SDS011;37654;51.262;17.058;2024-01-07T01:01:27;17.08;;;8.93;;
51560;SDS011;37654;51.262;17.058;2024-01-07T01:03:52;18.05;;;7.95;;
51560;SDS011;37654;51.262;17.058;2024-01-07T01:06:17;16.90;;;8.60;;
51560;SDS011;37654;51.262;17.058;2024-01-07T01:08:43;16.88;;;7.90;;
51560;SDS011;37654;51.262;17.058;2024-01-07T01:11:11;19.33;;;8.93;;
51560;SDS011;37654;51.262;17.058;2024-01-07T01:13:36;20.70;;;8.15;;
51560;SDS011;37654;51.262;17.058;2024-01-07T01:16:02;18.55;;;8.68;;
51560;SDS011;37654;51.262;17.058;2024-01-07T01:18:27;20.50;;;9.25;;
51560;SDS011;37654;51.262;17.058;2024-01-07T01:20:52;22.80;;;9.80;;
51560;SDS011;37654;51.262;17.058;2024-01-07T01:23:18;19.90;;;9.27;;
51560;SDS011;37654;51.262;17.058;2024-01-07T01:25:43;20.15;;;8.98;;
51560;SDS011;37654;51.262;17.058;2024-01-07T01:28:09;22.83;;;9.52;;
51560;SDS011;37654;51.262;17.058;2024-01-07T01:30:34;23.08;;;10.27;;
51560;SDS011;37654;51.262;17.058;2024-01-07T01:33:01;20.38;;;9.38;;
51560;SDS011;37654;51.262;17.058;2024-01-07T01:35:27;19.05;;;8.93;;
51560;SDS011;37654;51.262;17.058;2024-01-07T01:37:52;17.25;;;8.52;;
51560;SDS011;37654;51.262;17.058;2024-01-07T01:40:19;25.40;;;9.18;;
51560;SDS011;37654;51.262;17.058;2024-01-07T01:42:45;19.00;;;9.05;;
51560;SDS011;37654;51.262;17.058;2024-01-07T01:45:10;17.92;;;9.35;;
51560;SDS011;37654;51.262;17.058;2024-01-07T01:47:36;13.98;;;7.57;;
51560;SDS011;37654;51.262;17.058;2024-01-07T01:50:01;19.42;;;8.80;;
51560;SDS011;37654;51.262;17.058;2024-01-07T01:52:27;16.92;;;8.77;;
51560;SDS011;37654;51.262;17.058;2024-01-07T01:54:52;21.98;;;9.20;;
51560;SDS011;37654;51.262;17.058;2024-01-07T01:57:19;20.35;;;8.80;;
51560;SDS011;37654;51.262;17.058;2024-01-07T01:59:46;23.40;;;10.02;;
51560;SDS011;37654;51.262;17.058;2024-01-07T02:02:11;16.90;;;9.18;;
51560;SDS011;37654;51.262;17.058;2024-01-07T02:04:36;17.13;;;8.68;;
51560;SDS011;37654;51.262;17.058;2024-01-07T02:07:02;16.95;;;8.35;;
51560;SDS011;37654;51.262;17.058;2024-01-07T02:09:27;20.55;;;9.93;;
51560;SDS011;37654;51.262;17.058;2024-01-07T02:14:36;17.58;;;8.95;;
51560;SDS011;37654;51.262;17.058;2024-01-07T02:17:02;19.83;;;9.77;;
51560;SDS011;37654;51.262;17.058;2024-01-07T02:19:27;23.35;;;9.88;;
51560;SDS011;37654;51.262;17.058;2024-01-07T02:21:52;14.68;;;8.15;;
51560;SDS011;37654;51.262;17.058;2024-01-07T02:24:17;19.55;;;9.50;;
51560;SDS011;37654;51.262;17.058;2024-01-07T02:26:43;18.67;;;9.25;;
51560;SDS011;37654;51.262;17.058;2024-01-07T02:29:08;18.73;;;8.52;;
51560;SDS011;37654;51.262;17.058;2024-01-07T02:31:34;19.00;;;9.30;;
51560;SDS011;37654;51.262;17.058;2024-01-07T02:33:59;18.45;;;9.63;;
51560;SDS011;37654;51.262;17.058;2024-01-07T02:36:24;20.17;;;9.25;;
51560;SDS011;37654;51.262;17.058;2024-01-07T02:38:49;18.48;;;9.25;;
51560;SDS011;37654;51.262;17.058;2024-01-07T02:41:15;16.65;;;8.10;;
51560;SDS011;37654;51.262;17.058;2024-01-07T02:43:40;16.80;;;8.70;;
51560;SDS011;37654;51.262;17.058;2024-01-07T02:46:06;19.40;;;10.07;;
51560;SDS011;37654;51.262;17.058;2024-01-07T02:48:32;19.10;;;9.75;;
51560;SDS011;37654;51.262;17.058;2024-01-07T02:50:57;18.10;;;9.23;;
51560;SDS011;37654;51.262;17.058;2024-01-07T02:53:22;25.40;;;9.77;;
51560;SDS011;37654;51.262;17.058;2024-01-07T02:55:48;14.50;;;7.72;;
51560;SDS011;37654;51.262;17.058;2024-01-07T02:58:13;18.33;;;8.82;;
51560;SDS011;37654;51.262;17.058;2024-01-07T03:00:38;19.00;;;9.60;;
51560;SDS011;37654;51.262;17.058;2024-01-07T03:03:04;20.23;;;9.05;;
51560;SDS011;37654;51.262;17.058;2024-01-07T03:05:29;17.63;;;8.10;;
51560;SDS011;37654;51.262;17.058;2024-01-07T03:07:58;16.85;;;8.00;;
51560;SDS011;37654;51.262;17.058;2024-01-07T03:10:23;17.50;;;8.73;;
51560;SDS011;37654;51.262;17.058;2024-01-07T03:12:48;15.48;;;7.47;;
51560;SDS011;37654;51.262;17.058;2024-01-07T03:15:13;20.38;;;8.85;;
51560;SDS011;37654;51.262;17.058;2024-01-07T03:17:39;17.67;;;9.68;;
51560;SDS011;37654;51.262;17.058;2024-01-07T03:20:04;18.63;;;9.75;;
51560;SDS011;37654;51.262;17.058;2024-01-07T03:22:30;17.13;;;9.35;;
51560;SDS011;37654;51.262;17.058;2024-01-07T03:24:55;16.10;;;7.97;;
51560;SDS011;37654;51.262;17.058;2024-01-07T03:27:20;16.52;;;8.60;;
51560;SDS011;37654;51.262;17.058;2024-01-07T03:29:45;18.77;;;8.82;;
51560;SDS011;37654;51.262;17.058;2024-01-07T03:32:11;17.52;;;8.55;;
51560;SDS011;37654;51.262;17.058;2024-01-07T03:34:36;15.13;;;7.35;;
51560;SDS011;37654;51.262;17.058;2024-01-07T03:37:03;18.00;;;9.32;;
51560;SDS011;37654;51.262;17.058;2024-01-07T03:39:34;16.50;;;8.45;;
51560;SDS011;37654;51.262;17.058;2024-01-07T03:41:59;15.35;;;7.07;;
51560;SDS011;37654;51.262;17.058;2024-01-07T03:44:24;15.27;;;8.50;;
51560;SDS011;37654;51.262;17.058;2024-01-07T03:46:50;17.50;;;8.73;;
51560;SDS011;37654;51.262;17.058;2024-01-07T03:49:16;26.85;;;8.00;;
51560;SDS011;37654;51.262;17.058;2024-01-07T03:51:43;20.52;;;9.05;;
51560;SDS011;37654;51.262;17.058;2024-01-07T03:54:08;16.05;;;8.57;;
51560;SDS011;37654;51.262;17.058;2024-01-07T03:56:34;17.55;;;8.45;;
51560;SDS011;37654;51.262;17.058;2024-01-07T03:58:59;17.88;;;8.00;;
51560;SDS011;37654;51.262;17.058;2024-01-07T04:01:24;13.02;;;7.55;;
51560;SDS011;37654;51.262;17.058;2024-01-07T04:03:51;14.90;;;7.68;;
51560;SDS011;37654;51.262;17.058;2024-01-07T04:06:16;12.50;;;6.65;;
51560;SDS011;37654;51.262;17.058;2024-01-07T04:08:41;16.02;;;8.52;;
51560;SDS011;37654;51.262;17.058;2024-01-07T04:11:07;13.55;;;6.70;;
51560;SDS011;37654;51.262;17.058;2024-01-07T04:13:32;15.27;;;7.38;;
51560;SDS011;37654;51.262;17.058;2024-01-07T04:15:57;13.05;;;6.95;;
51560;SDS011;37654;51.262;17.058;2024-01-07T04:18:22;13.93;;;8.15;;
51560;SDS011;37654;51.262;17.058;2024-01-07T04:20:48;17.17;;;7.53;;
51560;SDS011;37654;51.262;17.058;2024-01-07T04:23:13;15.90;;;8.18;;
51560;SDS011;37654;51.262;17.058;2024-01-07T04:25:38;12.73;;;7.28;;
51560;SDS011;37654;51.262;17.058;2024-01-07T04:28:05;15.63;;;7.22;;
51560;SDS011;37654;51.262;17.058;2024-01-07T04:30:31;16.73;;;8.10;;
51560;SDS011;37654;51.262;17.058;2024-01-07T04:32:56;17.38;;;8.00;;
51560;SDS011;37654;51.262;17.058;2024-01-07T04:35:22;19.17;;;7.55;;
51560;SDS011;37654;51.262;17.058;2024-01-07T04:37:47;14.70;;;6.88;;
51560;SDS011;37654;51.262;17.058;2024-01-07T04:40:12;14.13;;;7.32;;
51560;SDS011;37654;51.262;17.058;2024-01-07T04:42:38;14.60;;;6.75;;
51560;SDS011;37654;51.262;17.058;2024-01-07T04:45:03;12.57;;;7.17;;
51560;SDS011;37654;51.262;17.058;2024-01-07T04:49:54;12.70;;;6.95;;
51560;SDS011;37654;51.262;17.058;2024-01-07T04:52:19;14.48;;;6.25;;
51560;SDS011;37654;51.262;17.058;2024-01-07T04:54:44;13.52;;;6.53;;
51560;SDS011;37654;51.262;17.058;2024-01-07T04:57:10;13.10;;;6.40;;
51560;SDS011;37654;51.262;17.058;2024-01-07T04:59:35;12.27;;;6.05;;
51560;SDS011;37654;51.262;17.058;2024-01-07T05:02:00;13.25;;;6.00;;
51560;SDS011;37654;51.262;17.058;2024-01-07T05:04:26;12.10;;;6.38;;
51560;SDS011;37654;51.262;17.058;2024-01-07T05:06:51;10.02;;;5.63;;
51560;SDS011;37654;51.262;17.058;2024-01-07T05:09:17;12.60;;;6.20;;
51560;SDS011;37654;51.262;17.058;2024-01-07T05:11:44;11.02;;;6.55;;
51560;SDS011;37654;51.262;17.058;2024-01-07T05:14:10;10.98;;;6.07;;
51560;SDS011;37654;51.262;17.058;2024-01-07T05:16:36;14.85;;;6.40;;
51560;SDS011;37654;51.262;17.058;2024-01-07T05:19:01;12.27;;;6.63;;
51560;SDS011;37654;51.262;17.058;2024-01-07T05:21:26;9.90;;;6.03;;
51560;SDS011;37654;51.262;17.058;2024-01-07T05:23:51;11.02;;;6.13;;
51560;SDS011;37654;51.262;17.058;2024-01-07T05:26:17;17.55;;;6.93;;
51560;SDS011;37654;51.262;17.058;2024-01-07T05:28:42;14.60;;;7.30;;
51560;SDS011;37654;51.262;17.058;2024-01-07T05:31:18;11.68;;;6.07;;
51560;SDS011;37654;51.262;17.058;2024-01-07T05:33:44;11.00;;;6.60;;
51560;SDS011;37654;51.262;17.058;2024-01-07T05:36:10;10.88;;;5.97;;
51560;SDS011;37654;51.262;17.058;2024-01-07T05:38:35;11.75;;;5.50;;
51560;SDS011;37654;51.262;17.058;2024-01-07T05:41:00;11.00;;;6.32;;
51560;SDS011;37654;51.262;17.058;2024-01-07T05:43:25;11.35;;;6.18;;
51560;SDS011;37654;51.262;17.058;2024-01-07T05:45:51;9.52;;;6.00;;
51560;SDS011;37654;51.262;17.058;2024-01-07T05:48:16;9.70;;;5.68;;
51560;SDS011;37654;51.262;17.058;2024-01-07T05:50:42;11.52;;;6.50;;
51560;SDS011;37654;51.262;17.058;2024-01-07T05:53:07;11.45;;;6.30;;
51560;SDS011;37654;51.262;17.058;2024-01-07T05:55:32;11.50;;;6.53;;
51560;SDS011;37654;51.262;17.058;2024-01-07T05:57:58;9.80;;;6.18;;
51560;SDS011;37654;51.262;17.058;2024-01-07T06:00:23;10.00;;;5.82;;
51560;SDS011;37654;51.262;17.058;2024-01-07T06:02:48;9.98;;;5.38;;
51560;SDS011;37654;51.262;17.058;2024-01-07T06:05:14;11.18;;;5.60;;
51560;SDS011;37654;51.262;17.058;2024-01-07T06:07:39;11.85;;;6.10;;
51560;SDS011;37654;51.262;17.058;2024-01-07T06:10:04;14.00;;;6.28;;
51560;SDS011;37654;51.262;17.058;2024-01-07T06:12:31;10.27;;;5.70;;
51560;SDS011;37654;51.262;17.058;2024-01-07T06:14:56;9.23;;;5.40;;
51560;SDS011;37654;51.262;17.058;2024-01-07T06:17:21;9.68;;;5.82;;
51560;SDS011;37654;51.262;17.058;2024-01-07T06:19:47;14.02;;;6.55;;
51560;SDS011;37654;51.262;17.058;2024-01-07T06:22:12;12.75;;;6.40;;
51560;SDS011;37654;51.262;17.058;2024-01-07T06:24:37;14.57;;;6.18;;
51560;SDS011;37654;51.262;17.058;2024-01-07T06:27:03;10.60;;;6.10;;
51560;SDS011;37654;51.262;17.058;2024-01-07T06:29:29;9.70;;;4.97;;
51560;SDS011;37654;51.262;17.058;2024-01-07T06:31:54;10.27;;;5.28;;
51560;SDS011;37654;51.262;17.058;2024-01-07T06:34:19;8.10;;;4.15;;
51560;SDS011;37654;51.262;17.058;2024-01-07T06:36:46;11.13;;;4.88;;
51560;SDS011;37654;51.262;17.058;2024-01-07T06:39:11;8.32;;;4.38;;
51560;SDS011;37654;51.262;17.058;2024-01-07T06:41:36;8.30;;;4.13;;
51560;SDS011;37654;51.262;17.058;2024-01-07T06:44:02;9.05;;;4.68;;
51560;SDS011;37654;51.262;17.058;2024-01-07T06:46:27;7.35;;;4.22;;
51560;SDS011;37654;51.262;17.058;2024-01-07T06:48:53;8.55;;;4.65;;
51560;SDS011;37654;51.262;17.058;2024-01-07T06:51:22;12.80;;;5.05;;
51560;SDS011;37654;51.262;17.058;2024-01-07T06:53:50;8.38;;;4.13;;
51560;SDS011;37654;51.262;17.058;2024-01-07T06:56:16;9.55;;;3.75;;
51560;SDS011;37654;51.262;17.058;2024-01-07T06:58:41;7.40;;;4.07;;
51560;SDS011;37654;51.262;17.058;2024-01-07T07:01:06;6.97;;;4.30;;
51560;SDS011;37654;51.262;17.058;2024-01-07T07:03:32;11.32;;;3.90;;
51560;SDS011;37654;51.262;17.058;2024-01-07T07:05:57;5.05;;;2.88;;
51560;SDS011;37654;51.262;17.058;2024-01-07T07:08:22;9.55;;;3.88;;
51560;SDS011;37654;51.262;17.058;2024-01-07T07:10:48;6.10;;;3.13;;
51560;SDS011;37654;51.262;17.058;2024-01-07T07:13:13;8.68;;;3.42;;
51560;SDS011;37654;51.262;17.058;2024-01-07T07:15:39;6.20;;;3.00;;
51560;SDS011;37654;51.262;17.058;2024-01-07T07:18:05;5.63;;;2.95;;
51560;SDS011;37654;51.262;17.058;2024-01-07T07:20:30;8.60;;;3.40;;
51560;SDS011;37654;51.262;17.058;2024-01-07T07:22:55;5.25;;;3.50;;
51560;SDS011;37654;51.262;17.058;2024-01-07T07:25:20;4.35;;;2.95;;
51560;SDS011;37654;51.262;17.058;2024-01-07T07:27:46;8.48;;;3.75;;
51560;SDS011;37654;51.262;17.058;2024-01-07T07:30:11;7.00;;;3.92;;
51560;SDS011;37654;51.262;17.058;2024-01-07T07:32:38;11.75;;;4.35;;
51560;SDS011;37654;51.262;17.058;2024-01-07T07:35:04;6.22;;;3.33;;
51560;SDS011;37654;51.262;17.058;2024-01-07T07:37:29;9.80;;;3.90;;
51560;SDS011;37654;51.262;17.058;2024-01-07T07:39:54;8.63;;;3.88;;
51560;SDS011;37654;51.262;17.058;2024-01-07T07:42:20;8.13;;;4.22;;
51560;SDS011;37654;51.262;17.058;2024-01-07T07:44:45;5.70;;;3.47;;
51560;SDS011;37654;51.262;17.058;2024-01-07T07:47:10;7.10;;;3.60;;
51560;SDS011;37654;51.262;17.058;2024-01-07T07:49:37;7.82;;;3.60;;
51560;SDS011;37654;51.262;17.058;2024-01-07T07:52:04;6.65;;;3.33;;
51560;SDS011;37654;51.262;17.058;2024-01-07T07:54:30;8.15;;;4.53;;
51560;SDS011;37654;51.262;17.058;2024-01-07T07:56:55;6.75;;;3.80;;
51560;SDS011;37654;51.262;17.058;2024-01-07T07:59:22;7.40;;;4.68;;
51560;SDS011;37654;51.262;17.058;2024-01-07T08:01:47;6.28;;;3.58;;
51560;SDS011;37654;51.262;17.058;2024-01-07T08:04:13;6.20;;;3.67;;
51560;SDS011;37654;51.262;17.058;2024-01-07T08:06:38;6.70;;;3.63;;
51560;SDS011;37654;51.262;17.058;2024-01-07T08:09:03;7.43;;;3.97;;
51560;SDS011;37654;51.262;17.058;2024-01-07T08:11:29;8.32;;;3.83;;
51560;SDS011;37654;51.262;17.058;2024-01-07T08:13:55;5.97;;;3.53;;
51560;SDS011;37654;51.262;17.058;2024-01-07T08:16:20;9.68;;;4.07;;
51560;SDS011;37654;51.262;17.058;2024-01-07T08:18:46;8.82;;;4.82;;
51560;SDS011;37654;51.262;17.058;2024-01-07T08:21:11;8.30;;;5.05;;
51560;SDS011;37654;51.262;17.058;2024-01-07T08:23:37;10.40;;;5.72;;
51560;SDS011;37654;51.262;17.058;2024-01-07T08:26:02;10.50;;;5.65;;
51560;SDS011;37654;51.262;17.058;2024-01-07T08:28:27;10.93;;;6.05;;
51560;SDS011;37654;51.262;17.058;2024-01-07T08:30:53;10.68;;;6.38;;
51560;SDS011;37654;51.262;17.058;2024-01-07T08:33:18;13.05;;;5.97;;
51560;SDS011;37654;51.262;17.058;2024-01-07T08:35:44;9.98;;;5.20;;
51560;SDS011;37654;51.262;17.058;2024-01-07T08:38:09;7.63;;;4.65;;
51560;SDS011;37654;51.262;17.058;2024-01-07T08:40:35;7.32;;;4.70;;
51560;SDS011;37654;51.262;17.058;2024-01-07T08:43:00;9.35;;;4.72;;
51560;SDS011;37654;51.262;17.058;2024-01-07T08:45:27;8.55;;;3.95;;
51560;SDS011;37654;51.262;17.058;2024-01-07T08:47:52;8.87;;;3.70;;
51560;SDS011;37654;51.262;17.058;2024-01-07T08:50:17;7.97;;;4.18;;
51560;SDS011;37654;51.262;17.058;2024-01-07T08:52:42;9.50;;;4.55;;
51560;SDS011;37654;51.262;17.058;2024-01-07T08:55:08;9.38;;;4.82;;
51560;SDS011;37654;51.262;17.058;2024-01-07T08:57:35;8.98;;;5.35;;
51560;SDS011;37654;51.262;17.058;2024-01-07T09:00:00;8.27;;;4.57;;
51560;SDS011;37654;51.262;17.058;2024-01-07T09:02:25;13.77;;;5.53;;
51560;SDS011;37654;51.262;17.058;2024-01-07T09:04:50;9.80;;;5.07;;
51560;SDS011;37654;51.262;17.058;2024-01-07T09:07:16;10.43;;;4.70;;
51560;SDS011;37654;51.262;17.058;2024-01-07T09:09:41;10.52;;;4.55;;
51560;SDS011;37654;51.262;17.058;2024-01-07T09:12:07;9.13;;;4.90;;
51560;SDS011;37654;51.262;17.058;2024-01-07T09:14:32;6.32;;;2.70;;
51560;SDS011;37654;51.262;17.058;2024-01-07T09:16:58;10.27;;;3.75;;
51560;SDS011;37654;51.262;17.058;2024-01-07T09:19:23;10.38;;;3.97;;
51560;SDS011;37654;51.262;17.058;2024-01-07T09:21:48;8.98;;;3.65;;
51560;SDS011;37654;51.262;17.058;2024-01-07T09:24:14;8.45;;;3.83;;
51560;SDS011;37654;51.262;17.058;2024-01-07T09:26:39;9.15;;;4.38;;
51560;SDS011;37654;51.262;17.058;2024-01-07T09:29:05;8.48;;;4.40;;
51560;SDS011;37654;51.262;17.058;2024-01-07T09:31:30;9.02;;;4.05;;
51560;SDS011;37654;51.262;17.058;2024-01-07T09:33:55;13.00;;;4.93;;
51560;SDS011;37654;51.262;17.058;2024-01-07T09:36:20;9.67;;;4.00;;
51560;SDS011;37654;51.262;17.058;2024-01-07T09:38:46;9.27;;;3.40;;
51560;SDS011;37654;51.262;17.058;2024-01-07T09:41:11;8.80;;;3.33;;
51560;SDS011;37654;51.262;17.058;2024-01-07T09:43:36;8.02;;;3.80;;
51560;SDS011;37654;51.262;17.058;2024-01-07T09:46:02;14.40;;;4.95;;
51560;SDS011;37654;51.262;17.058;2024-01-07T09:48:27;9.52;;;3.70;;
51560;SDS011;37654;51.262;17.058;2024-01-07T09:50:53;10.73;;;4.38;;
51560;SDS011;37654;51.262;17.058;2024-01-07T09:53:19;8.20;;;3.85;;
51560;SDS011;37654;51.262;17.058;2024-01-07T09:58:19;11.55;;;4.38;;
51560;SDS011;37654;51.262;17.058;2024-01-07T10:00:45;11.93;;;5.13;;
51560;SDS011;37654;51.262;17.058;2024-01-07T10:03:10;8.55;;;4.65;;
51560;SDS011;37654;51.262;17.058;2024-01-07T10:05:35;13.57;;;5.13;;
51560;SDS011;37654;51.262;17.058;2024-01-07T10:08:01;13.32;;;6.50;;
51560;SDS011;37654;51.262;17.058;2024-01-07T10:10:27;12.25;;;5.25;;
51560;SDS011;37654;51.262;17.058;2024-01-07T10:12:53;15.35;;;6.07;;
51560;SDS011;37654;51.262;17.058;2024-01-07T10:15:21;14.70;;;5.90;;
51560;SDS011;37654;51.262;17.058;2024-01-07T10:17:47;20.45;;;6.78;;
51560;SDS011;37654;51.262;17.058;2024-01-07T10:20:13;13.00;;;5.63;;
51560;SDS011;37654;51.262;17.058;2024-01-07T10:22:38;12.38;;;5.65;;
51560;SDS011;37654;51.262;17.058;2024-01-07T10:25:04;13.38;;;5.28;;
51560;SDS011;37654;51.262;17.058;2024-01-07T10:27:29;14.82;;;6.03;;
51560;SDS011;37654;51.262;17.058;2024-01-07T10:29:58;9.68;;;4.72;;
51560;SDS011;37654;51.262;17.058;2024-01-07T10:32:23;13.52;;;6.13;;
51560;SDS011;37654;51.262;17.058;2024-01-07T10:34:49;18.00;;;7.55;;
51560;SDS011;37654;51.262;17.058;2024-01-07T10:37:16;14.30;;;5.75;;
51560;SDS011;37654;51.262;17.058;2024-01-07T10:39:41;14.07;;;6.40;;
51560;SDS011;37654;51.262;17.058;2024-01-07T10:42:06;11.40;;;5.70;;
51560;SDS011;37654;51.262;17.058;2024-01-07T10:44:33;13.88;;;6.68;;
51560;SDS011;37654;51.262;17.058;2024-01-07T10:46:58;13.27;;;5.70;;
51560;SDS011;37654;51.262;17.058;2024-01-07T10:49:24;14.88;;;5.63;;
51560;SDS011;37654;51.262;17.058;2024-01-07T10:52:08;22.73;;;8.90;;
51560;SDS011;37654;51.262;17.058;2024-01-07T10:54:34;24.85;;;9.40;;
51560;SDS011;37654;51.262;17.058;2024-01-07T10:57:02;20.98;;;8.75;;
51560;SDS011;37654;51.262;17.058;2024-01-07T10:59:29;21.48;;;8.88;;
51560;SDS011;37654;51.262;17.058;2024-01-07T11:01:57;16.48;;;6.35;;
51560;SDS011;37654;51.262;17.058;2024-01-07T11:04:23;17.88;;;5.55;;
51560;SDS011;37654;51.262;17.058;2024-01-07T11:07:03;16.33;;;6.28;;
51560;SDS011;37654;51.262;17.058;2024-01-07T11:12:10;15.75;;;7.20;;
51560;SDS011;37654;51.262;17.058;2024-01-07T11:14:39;17.08;;;8.00;;
51560;SDS011;37654;51.262;17.058;2024-01-07T11:17:08;15.85;;;5.88;;
51560;SDS011;37654;51.262;17.058;2024-01-07T11:19:37;15.35;;;7.18;;
51560;SDS011;37654;51.262;17.058;2024-01-07T11:22:35;14.23;;;6.90;;
51560;SDS011;37654;51.262;17.058;2024-01-07T11:24:54;16.42;;;6.75;;
51560;SDS011;37654;51.262;17.058;2024-01-07T11:27:21;13.80;;;6.95;;
51560;SDS011;37654;51.262;17.058;2024-01-07T11:29:56;14.43;;;5.88;;
51560;SDS011;37654;51.262;17.058;2024-01-07T11:32:39;18.55;;;8.23;;
51560;SDS011;37654;51.262;17.058;2024-01-07T11:35:05;21.60;;;8.43;;
51560;SDS011;37654;51.262;17.058;2024-01-07T11:37:30;19.92;;;7.85;;
51560;SDS011;37654;51.262;17.058;2024-01-07T11:39:56;15.70;;;7.27;;
51560;SDS011;37654;51.262;17.058;2024-01-07T11:42:22;16.02;;;7.90;;
51560;SDS011;37654;51.262;17.058;2024-01-07T11:44:54;20.15;;;6.85;;
51560;SDS011;37654;51.262;17.058;2024-01-07T11:47:20;18.38;;;6.70;;
51560;SDS011;37654;51.262;17.058;2024-01-07T11:49:46;19.02;;;8.38;;
51560;SDS011;37654;51.262;17.058;2024-01-07T11:52:12;20.08;;;8.32;;
51560;SDS011;37654;51.262;17.058;2024-01-07T11:54:39;23.13;;;8.98;;
51560;SDS011;37654;51.262;17.058;2024-01-07T11:57:05;16.45;;;6.85;;
51560;SDS011;37654;51.262;17.058;2024-01-07T11:59:30;18.63;;;6.82;;
51560;SDS011;37654;51.262;17.058;2024-01-07T12:01:55;20.65;;;7.55;;
51560;SDS011;37654;51.262;17.058;2024-01-07T12:04:21;16.10;;;6.30;;
51560;SDS011;37654;51.262;17.058;2024-01-07T12:06:47;15.52;;;6.60;;
51560;SDS011;37654;51.262;17.058;2024-01-07T12:09:12;18.50;;;7.40;;
51560;SDS011;37654;51.262;17.058;2024-01-07T12:11:40;19.02;;;7.78;;
51560;SDS011;37654;51.262;17.058;2024-01-07T12:14:09;18.45;;;9.07;;
51560;SDS011;37654;51.262;17.058;2024-01-07T12:16:35;20.15;;;7.65;;
51560;SDS011;37654;51.262;17.058;2024-01-07T12:19:01;18.58;;;8.45;;
51560;SDS011;37654;51.262;17.058;2024-01-07T12:21:26;17.80;;;7.32;;
51560;SDS011;37654;51.262;17.058;2024-01-07T12:23:53;17.67;;;8.02;;
51560;SDS011;37654;51.262;17.058;2024-01-07T12:26:19;15.23;;;7.78;;
51560;SDS011;37654;51.262;17.058;2024-01-07T12:28:45;18.10;;;8.05;;
51560;SDS011;37654;51.262;17.058;2024-01-07T12:31:17;16.45;;;7.88;;
51560;SDS011;37654;51.262;17.058;2024-01-07T12:33:42;16.08;;;7.35;;
51560;SDS011;37654;51.262;17.058;2024-01-07T12:36:07;20.48;;;8.73;;
51560;SDS011;37654;51.262;17.058;2024-01-07T12:38:33;21.30;;;8.93;;
51560;SDS011;37654;51.262;17.058;2024-01-07T12:40:58;19.45;;;8.80;;
51560;SDS011;37654;51.262;17.058;2024-01-07T12:43:25;20.90;;;8.55;;
51560;SDS011;37654;51.262;17.058;2024-01-07T12:45:50;19.77;;;9.32;;
51560;SDS011;37654;51.262;17.058;2024-01-07T12:48:16;21.52;;;9.50;;
51560;SDS011;37654;51.262;17.058;2024-01-07T12:50:41;23.23;;;10.95;;
51560;SDS011;37654;51.262;17.058;2024-01-07T12:53:06;22.85;;;9.07;;
51560;SDS011;37654;51.262;17.058;2024-01-07T12:55:32;19.38;;;8.85;;
51560;SDS011;37654;51.262;17.058;2024-01-07T12:57:58;22.67;;;10.13;;
51560;SDS011;37654;51.262;17.058;2024-01-07T13:00:24;19.35;;;9.02;;
51560;SDS011;37654;51.262;17.058;2024-01-07T13:02:51;19.73;;;10.15;;
51560;SDS011;37654;51.262;17.058;2024-01-07T13:05:17;22.10;;;10.80;;
51560;SDS011;37654;51.262;17.058;2024-01-07T13:07:42;22.95;;;10.98;;
51560;SDS011;37654;51.262;17.058;2024-01-07T13:10:09;21.98;;;10.80;;
51560;SDS011;37654;51.262;17.058;2024-01-07T13:12:35;19.05;;;9.18;;
51560;SDS011;37654;51.262;17.058;2024-01-07T13:15:00;19.38;;;9.75;;
51560;SDS011;37654;51.262;17.058;2024-01-07T13:17:26;23.60;;;10.63;;
51560;SDS011;37654;51.262;17.058;2024-01-07T13:19:57;35.03;;;14.23;;
51560;SDS011;37654;51.262;17.058;2024-01-07T13:22:23;32.70;;;11.35;;
51560;SDS011;37654;51.262;17.058;2024-01-07T13:25:05;24.20;;;10.57;;
51560;SDS011;37654;51.262;17.058;2024-01-07T13:27:32;25.02;;;10.15;;
51560;SDS011;37654;51.262;17.058;2024-01-07T13:29:58;18.83;;;9.52;;
51560;SDS011;37654;51.262;17.058;2024-01-07T13:32:25;21.95;;;9.63;;
51560;SDS011;37654;51.262;17.058;2024-01-07T13:34:51;23.65;;;10.02;;
51560;SDS011;37654;51.262;17.058;2024-01-07T13:37:22;20.58;;;9.90;;
51560;SDS011;37654;51.262;17.058;2024-01-07T13:39:48;23.33;;;10.15;;
51560;SDS011;37654;51.262;17.058;2024-01-07T13:44:56;21.88;;;9.55;;
51560;SDS011;37654;51.262;17.058;2024-01-07T13:47:21;19.33;;;9.75;;
51560;SDS011;37654;51.262;17.058;2024-01-07T13:49:47;23.98;;;11.20;;
51560;SDS011;37654;51.262;17.058;2024-01-07T13:52:18;19.92;;;9.55;;
51560;SDS011;37654;51.262;17.058;2024-01-07T13:54:51;25.08;;;11.27;;
51560;SDS011;37654;51.262;17.058;2024-01-07T13:57:37;26.13;;;11.30;;
51560;SDS011;37654;51.262;17.058;2024-01-07T14:00:05;22.73;;;11.45;;
51560;SDS011;37654;51.262;17.058;2024-01-07T14:02:36;21.65;;;11.25;;
51560;SDS011;37654;51.262;17.058;2024-01-07T14:05:03;23.08;;;11.70;;
51560;SDS011;37654;51.262;17.058;2024-01-07T14:07:29;25.27;;;11.27;;
51560;SDS011;37654;51.262;17.058;2024-01-07T14:09:54;26.25;;;11.32;;
51560;SDS011;37654;51.262;17.058;2024-01-07T14:12:21;22.65;;;11.27;;
51560;SDS011;37654;51.262;17.058;2024-01-07T14:14:52;25.17;;;12.60;;
51560;SDS011;37654;51.262;17.058;2024-01-07T14:17:19;24.35;;;10.80;;
51560;SDS011;37654;51.262;17.058;2024-01-07T14:19:44;27.13;;;13.55;;
51560;SDS011;37654;51.262;17.058;2024-01-07T14:22:13;25.48;;;11.23;;
51560;SDS011;37654;51.262;17.058;2024-01-07T14:24:48;26.33;;;13.02;;
51560;SDS011;37654;51.262;17.058;2024-01-07T14:27:17;26.70;;;12.07;;
51560;SDS011;37654;51.262;17.058;2024-01-07T14:29:43;26.58;;;11.50;;